sensor_id;sensor_type;location;lat;lon;timestamp;pressure;altitude;pressure_sealevel;temperature;humidity
68712;BME280;55690;51.566;19.198;2023-04-19T00:01:41;102082.82;;;13.48;88.46
68712;BME280;55690;51.566;19.198;2023-04-19T00:05:48;102075.81;;;13.44;88.99
68712;BME280;55690;51.566;19.198;2023-04-19T00:09:54;102073.41;;;13.40;89.59
68712;BME280;55690;51.566;19.198;2023-04-19T00:14:00;102072.73;;;13.36;89.83
68712;BME280;55690;51.566;19.198;2023-04-19T00:18:06;102070.39;;;13.30;89.80
68712;BME280;55690;51.566;19.198;2023-04-19T00:22:12;102065.17;;;13.54;89.34
68712;BME280;55690;51.566;19.198;2023-04-19T00:26:19;102056.45;;;13.35;89.91
68712;BME280;55690;51.566;19.198;2023-04-19T00:30:25;102053.05;;;13.17;89.97
68712;BME280;55690;51.566;19.198;2023-04-19T00:34:31;102049.99;;;13.07;89.76
68712;BME280;55690;51.566;19.198;2023-04-19T00:38:37;102044.27;;;13.26;88.81
68712;BME280;55690;51.566;19.198;2023-04-19T00:42:43;102038.70;;;13.13;89.50
68712;BME280;55690;51.566;19.198;2023-04-19T00:46:50;102039.39;;;12.88;89.99
68712;BME280;55690;51.566;19.198;2023-04-19T00:50:56;102030.82;;;12.80;89.37
68712;BME280;55690;51.566;19.198;2023-04-19T00:55:03;102030.41;;;12.72;89.78
68712;BME280;55690;51.566;19.198;2023-04-19T00:59:08;102030.10;;;12.48;90.34
68712;BME280;55690;51.566;19.198;2023-04-19T01:03:14;102027.19;;;12.51;90.61
68712;BME280;55690;51.566;19.198;2023-04-19T01:07:20;102018.63;;;12.72;90.41
68712;BME280;55690;51.566;19.198;2023-04-19T01:11:27;102027.35;;;12.34;90.94
68712;BME280;55690;51.566;19.198;2023-04-19T01:15:33;102020.88;;;12.51;90.69
68712;BME280;55690;51.566;19.198;2023-04-19T01:19:39;102016.02;;;12.56;90.24
68712;BME280;55690;51.566;19.198;2023-04-19T01:23:45;102011.41;;;12.42;90.94
68712;BME280;55690;51.566;19.198;2023-04-19T01:27:51;101999.17;;;12.05;91.27
68712;BME280;55690;51.566;19.198;2023-04-19T01:31:57;101994.50;;;12.07;91.99
68712;BME280;55690;51.566;19.198;2023-04-19T01:36:04;102000.83;;;12.08;91.96
68712;BME280;55690;51.566;19.198;2023-04-19T01:40:11;102000.48;;;12.28;91.63
68712;BME280;55690;51.566;19.198;2023-04-19T01:44:16;101986.67;;;12.31;91.22
68712;BME280;55690;51.566;19.198;2023-04-19T01:48:22;101975.18;;;12.12;92.09
68712;BME280;55690;51.566;19.198;2023-04-19T01:52:28;101965.02;;;12.14;91.64
68712;BME280;55690;51.566;19.198;2023-04-19T01:56:34;101965.38;;;11.93;92.21
68712;BME280;55690;51.566;19.198;2023-04-19T02:00:40;101970.83;;;11.93;92.59
68712;BME280;55690;51.566;19.198;2023-04-19T02:04:47;101972.76;;;11.91;93.18
68712;BME280;55690;51.566;19.198;2023-04-19T02:08:53;101973.55;;;11.93;93.68
68712;BME280;55690;51.566;19.198;2023-04-19T02:12:59;101974.48;;;12.08;92.85
68712;BME280;55690;51.566;19.198;2023-04-19T02:17:05;101977.05;;;11.95;93.72
68712;BME280;55690;51.566;19.198;2023-04-19T02:21:11;101972.92;;;12.18;92.39
68712;BME280;55690;51.566;19.198;2023-04-19T02:25:18;101973.37;;;11.96;93.24
68712;BME280;55690;51.566;19.198;2023-04-19T02:29:24;101969.99;;;12.07;92.23
68712;BME280;55690;51.566;19.198;2023-04-19T02:33:30;101967.59;;;11.87;92.67
68712;BME280;55690;51.566;19.198;2023-04-19T02:37:36;101966.76;;;11.55;93.27
68712;BME280;55690;51.566;19.198;2023-04-19T02:41:42;101958.97;;;11.94;92.69
68712;BME280;55690;51.566;19.198;2023-04-19T02:45:49;101954.86;;;11.87;91.93
68712;BME280;55690;51.566;19.198;2023-04-19T02:49:55;101954.67;;;11.90;92.11
68712;BME280;55690;51.566;19.198;2023-04-19T02:54:01;101934.13;;;11.39;92.07
68712;BME280;55690;51.566;19.198;2023-04-19T02:58:07;101944.13;;;11.39;92.41
68712;BME280;55690;51.566;19.198;2023-04-19T03:02:13;101934.67;;;10.98;93.63
68712;BME280;55690;51.566;19.198;2023-04-19T03:06:19;101932.64;;;10.71;94.51
68712;BME280;55690;51.566;19.198;2023-04-19T03:10:26;101927.80;;;10.60;94.42
68712;BME280;55690;51.566;19.198;2023-04-19T03:14:32;101928.01;;;10.73;94.25
68712;BME280;55690;51.566;19.198;2023-04-19T03:18:38;101922.95;;;10.49;94.50
68712;BME280;55690;51.566;19.198;2023-04-19T03:22:44;101922.55;;;10.24;93.84
68712;BME280;55690;51.566;19.198;2023-04-19T03:26:50;101915.73;;;10.15;92.73
68712;BME280;55690;51.566;19.198;2023-04-19T03:30:56;101911.79;;;9.71;94.36
68712;BME280;55690;51.566;19.198;2023-04-19T03:35:03;101904.99;;;9.62;94.12
68712;BME280;55690;51.566;19.198;2023-04-19T03:39:09;101903.97;;;9.82;93.16
68712;BME280;55690;51.566;19.198;2023-04-19T03:43:15;101908.09;;;9.54;92.91
68712;BME280;55690;51.566;19.198;2023-04-19T03:47:21;101899.70;;;10.11;91.89
68712;BME280;55690;51.566;19.198;2023-04-19T03:51:27;101903.72;;;9.69;92.98
68712;BME280;55690;51.566;19.198;2023-04-19T03:55:33;101902.93;;;9.84;91.95
68712;BME280;55690;51.566;19.198;2023-04-19T03:59:40;101887.93;;;9.77;91.52
68712;BME280;55690;51.566;19.198;2023-04-19T04:03:46;101893.09;;;9.99;90.48
68712;BME280;55690;51.566;19.198;2023-04-19T04:07:52;101880.95;;;10.06;90.67
68712;BME280;55690;51.566;19.198;2023-04-19T04:11:58;101889.48;;;9.98;90.51
68712;BME280;55690;51.566;19.198;2023-04-19T04:16:05;101889.47;;;10.16;90.93
68712;BME280;55690;51.566;19.198;2023-04-19T04:20:11;101895.83;;;9.82;91.33
68712;BME280;55690;51.566;19.198;2023-04-19T04:24:17;101892.84;;;10.04;89.42
68712;BME280;55690;51.566;19.198;2023-04-19T04:28:23;101897.70;;;10.14;89.94
68712;BME280;55690;51.566;19.198;2023-04-19T04:32:29;101890.27;;;10.18;89.44
68712;BME280;55690;51.566;19.198;2023-04-19T04:36:35;101884.21;;;10.13;89.01
68712;BME280;55690;51.566;19.198;2023-04-19T04:40:41;101890.68;;;10.10;89.07
68712;BME280;55690;51.566;19.198;2023-04-19T04:44:48;101880.15;;;10.04;89.33
68712;BME280;55690;51.566;19.198;2023-04-19T04:48:54;101885.78;;;9.84;89.45
68712;BME280;55690;51.566;19.198;2023-04-19T04:53:00;101884.13;;;10.31;88.70
68712;BME280;55690;51.566;19.198;2023-04-19T04:57:07;101880.79;;;10.26;89.28
68712;BME280;55690;51.566;19.198;2023-04-19T05:01:12;101876.05;;;9.80;89.74
68712;BME280;55690;51.566;19.198;2023-04-19T05:05:19;101880.98;;;9.89;89.17
68712;BME280;55690;51.566;19.198;2023-04-19T05:09:25;101880.09;;;9.54;89.20
68712;BME280;55690;51.566;19.198;2023-04-19T05:13:31;101886.24;;;9.57;89.21
68712;BME280;55690;51.566;19.198;2023-04-19T05:17:37;101878.79;;;9.09;90.77
68712;BME280;55690;51.566;19.198;2023-04-19T05:21:43;101896.17;;;9.22;90.85
68712;BME280;55690;51.566;19.198;2023-04-19T05:25:49;101899.38;;;9.30;90.02
68712;BME280;55690;51.566;19.198;2023-04-19T05:29:55;101893.89;;;9.32;90.18
68712;BME280;55690;51.566;19.198;2023-04-19T05:34:02;101875.82;;;9.50;89.98
68712;BME280;55690;51.566;19.198;2023-04-19T05:38:08;101887.85;;;9.44;90.38
68712;BME280;55690;51.566;19.198;2023-04-19T05:42:14;101883.86;;;9.68;89.55
68712;BME280;55690;51.566;19.198;2023-04-19T05:46:20;101885.45;;;9.73;89.64
68712;BME280;55690;51.566;19.198;2023-04-19T05:50:26;101881.47;;;9.80;88.63
68712;BME280;55690;51.566;19.198;2023-04-19T05:54:33;101877.32;;;9.90;88.39
68712;BME280;55690;51.566;19.198;2023-04-19T05:58:39;101877.96;;;9.43;89.70
68712;BME280;55690;51.566;19.198;2023-04-19T06:02:45;101871.09;;;9.88;88.78
68712;BME280;55690;51.566;19.198;2023-04-19T06:06:51;101867.70;;;10.00;88.39
68712;BME280;55690;51.566;19.198;2023-04-19T06:10:58;101870.69;;;9.95;87.61
68712;BME280;55690;51.566;19.198;2023-04-19T06:15:05;101872.34;;;9.98;88.22
68712;BME280;55690;51.566;19.198;2023-04-19T06:19:10;101869.81;;;9.95;88.15
68712;BME280;55690;51.566;19.198;2023-04-19T06:23:16;101875.68;;;10.03;88.22
68712;BME280;55690;51.566;19.198;2023-04-19T06:27:22;101877.08;;;9.77;87.96
68712;BME280;55690;51.566;19.198;2023-04-19T06:31:28;101878.36;;;9.87;87.64
68712;BME280;55690;51.566;19.198;2023-04-19T06:35:34;101878.95;;;10.10;87.58
68712;BME280;55690;51.566;19.198;2023-04-19T06:39:40;101878.23;;;10.06;87.82
68712;BME280;55690;51.566;19.198;2023-04-19T06:43:47;101886.67;;;10.17;88.12
68712;BME280;55690;51.566;19.198;2023-04-19T06:47:53;101867.93;;;10.30;87.41
68712;BME280;55690;51.566;19.198;2023-04-19T06:51:59;101872.30;;;10.32;86.71
68712;BME280;55690;51.566;19.198;2023-04-19T06:56:06;101870.02;;;10.25;86.29
68712;BME280;55690;51.566;19.198;2023-04-19T07:00:12;101871.61;;;10.45;86.38
68712;BME280;55690;51.566;19.198;2023-04-19T07:04:18;101866.63;;;10.37;87.26
68712;BME280;55690;51.566;19.198;2023-04-19T07:08:25;101866.80;;;10.50;87.54
68712;BME280;55690;51.566;19.198;2023-04-19T07:12:30;101860.00;;;10.74;86.13
68712;BME280;55690;51.566;19.198;2023-04-19T07:16:36;101862.70;;;10.58;86.76
68712;BME280;55690;51.566;19.198;2023-04-19T07:20:42;101855.60;;;10.56;86.32
68712;BME280;55690;51.566;19.198;2023-04-19T07:24:49;101836.40;;;10.90;86.24
68712;BME280;55690;51.566;19.198;2023-04-19T07:28:55;101847.11;;;10.62;86.24
68712;BME280;55690;51.566;19.198;2023-04-19T07:33:01;101843.27;;;10.82;85.91
68712;BME280;55690;51.566;19.198;2023-04-19T07:37:07;101847.28;;;10.59;86.20
68712;BME280;55690;51.566;19.198;2023-04-19T07:41:13;101835.16;;;11.12;85.86
68712;BME280;55690;51.566;19.198;2023-04-19T07:45:19;101841.74;;;11.08;85.79
68712;BME280;55690;51.566;19.198;2023-04-19T07:49:25;101838.70;;;10.82;86.67
68712;BME280;55690;51.566;19.198;2023-04-19T07:53:32;101835.70;;;11.03;86.83
68712;BME280;55690;51.566;19.198;2023-04-19T07:57:38;101829.58;;;11.29;86.24
68712;BME280;55690;51.566;19.198;2023-04-19T08:01:44;101827.46;;;11.34;85.44
68712;BME280;55690;51.566;19.198;2023-04-19T08:05:50;101827.00;;;11.12;86.31
68712;BME280;55690;51.566;19.198;2023-04-19T08:09:56;101822.99;;;10.87;85.36
68712;BME280;55690;51.566;19.198;2023-04-19T08:14:03;101824.52;;;10.77;86.66
68712;BME280;55690;51.566;19.198;2023-04-19T08:18:09;101831.13;;;10.87;87.00
68712;BME280;55690;51.566;19.198;2023-04-19T08:22:15;101829.39;;;11.32;85.75
68712;BME280;55690;51.566;19.198;2023-04-19T08:26:21;101816.73;;;11.47;84.30
68712;BME280;55690;51.566;19.198;2023-04-19T08:30:27;101822.02;;;11.04;85.09
68712;BME280;55690;51.566;19.198;2023-04-19T08:34:38;101820.35;;;11.02;86.04
68712;BME280;55690;51.566;19.198;2023-04-19T08:38:40;101825.24;;;11.11;85.33
68712;BME280;55690;51.566;19.198;2023-04-19T08:42:46;101819.17;;;11.51;85.22
68712;BME280;55690;51.566;19.198;2023-04-19T08:46:52;101820.38;;;11.61;84.50
68712;BME280;55690;51.566;19.198;2023-04-19T08:50:59;101820.66;;;11.71;84.20
68712;BME280;55690;51.566;19.198;2023-04-19T08:55:07;101821.05;;;11.65;84.41
68712;BME280;55690;51.566;19.198;2023-04-19T08:59:10;101823.48;;;11.25;84.74
68712;BME280;55690;51.566;19.198;2023-04-19T09:03:17;101830.51;;;11.44;84.56
68712;BME280;55690;51.566;19.198;2023-04-19T09:07:25;101831.88;;;11.81;83.80
68712;BME280;55690;51.566;19.198;2023-04-19T09:11:38;101830.54;;;11.88;83.42
68712;BME280;55690;51.566;19.198;2023-04-19T09:15:40;101835.86;;;11.45;84.61
68712;BME280;55690;51.566;19.198;2023-04-19T09:19:48;101832.86;;;11.50;84.06
68712;BME280;55690;51.566;19.198;2023-04-19T09:23:50;101837.24;;;11.52;84.12
68712;BME280;55690;51.566;19.198;2023-04-19T09:27:54;101835.72;;;11.62;83.72
68712;BME280;55690;51.566;19.198;2023-04-19T09:32:00;101836.70;;;11.76;83.36
68712;BME280;55690;51.566;19.198;2023-04-19T09:36:07;101837.94;;;11.70;84.28
68712;BME280;55690;51.566;19.198;2023-04-19T09:40:22;101836.68;;;12.20;83.30
68712;BME280;55690;51.566;19.198;2023-04-19T09:44:24;101830.65;;;12.29;82.88
68712;BME280;55690;51.566;19.198;2023-04-19T09:48:25;101828.38;;;11.79;83.47
68712;BME280;55690;51.566;19.198;2023-04-19T09:52:31;101837.19;;;12.12;83.49
68712;BME280;55690;51.566;19.198;2023-04-19T09:56:38;101836.35;;;11.82;83.61
68712;BME280;55690;51.566;19.198;2023-04-19T10:00:44;101825.12;;;12.02;83.81
68712;BME280;55690;51.566;19.198;2023-04-19T10:04:49;101828.89;;;12.28;83.27
68712;BME280;55690;51.566;19.198;2023-04-19T10:08:56;101824.26;;;12.71;83.06
68712;BME280;55690;51.566;19.198;2023-04-19T10:13:03;101831.91;;;12.38;81.30
68712;BME280;55690;51.566;19.198;2023-04-19T10:17:08;101822.57;;;12.42;81.93
68712;BME280;55690;51.566;19.198;2023-04-19T10:21:14;101825.48;;;12.39;82.21
68712;BME280;55690;51.566;19.198;2023-04-19T10:25:29;101830.94;;;11.96;82.47
68712;BME280;55690;51.566;19.198;2023-04-19T10:37:40;101824.03;;;12.33;81.48
68712;BME280;55690;51.566;19.198;2023-04-19T10:41:55;101826.21;;;12.69;81.28
68712;BME280;55690;51.566;19.198;2023-04-19T10:50:06;101820.33;;;12.34;81.61
68712;BME280;55690;51.566;19.198;2023-04-19T10:58:21;101828.01;;;12.13;81.87
68712;BME280;55690;51.566;19.198;2023-04-19T11:02:26;101838.23;;;12.38;82.47
68712;BME280;55690;51.566;19.198;2023-04-19T11:06:28;101826.11;;;12.71;81.47
68712;BME280;55690;51.566;19.198;2023-04-19T11:10:31;101824.32;;;12.43;82.38
68712;BME280;55690;51.566;19.198;2023-04-19T11:14:42;101828.60;;;12.88;81.18
68712;BME280;55690;51.566;19.198;2023-04-19T11:18:44;101827.77;;;12.59;81.30
68712;BME280;55690;51.566;19.198;2023-04-19T11:22:48;101834.25;;;12.29;81.63
68712;BME280;55690;51.566;19.198;2023-04-19T11:26:55;101833.80;;;12.64;81.89
68712;BME280;55690;51.566;19.198;2023-04-19T11:31:00;101821.78;;;12.95;81.22
68712;BME280;55690;51.566;19.198;2023-04-19T11:35:08;101836.13;;;12.70;81.68
68712;BME280;55690;51.566;19.198;2023-04-19T11:39:12;101832.39;;;12.44;81.28
68712;BME280;55690;51.566;19.198;2023-04-19T11:43:18;101828.25;;;12.65;80.97
68712;BME280;55690;51.566;19.198;2023-04-19T11:47:25;101829.52;;;12.74;81.55
68712;BME280;55690;51.566;19.198;2023-04-19T11:51:31;101833.30;;;12.72;81.23
68712;BME280;55690;51.566;19.198;2023-04-19T11:55:37;101841.39;;;12.73;81.51
68712;BME280;55690;51.566;19.198;2023-04-19T12:03:55;101843.34;;;12.57;82.16
68712;BME280;55690;51.566;19.198;2023-04-19T12:08:04;101842.56;;;12.69;81.48
68712;BME280;55690;51.566;19.198;2023-04-19T12:12:09;101833.46;;;12.56;82.57
68712;BME280;55690;51.566;19.198;2023-04-19T12:16:12;101837.46;;;12.50;82.07
68712;BME280;55690;51.566;19.198;2023-04-19T12:24:26;101842.44;;;12.85;81.93
68712;BME280;55690;51.566;19.198;2023-04-19T12:28:28;101837.91;;;12.57;82.61
68712;BME280;55690;51.566;19.198;2023-04-19T12:32:32;101844.71;;;12.64;82.70
68712;BME280;55690;51.566;19.198;2023-04-19T12:36:39;101838.32;;;12.51;82.75
68712;BME280;55690;51.566;19.198;2023-04-19T12:40:45;101836.53;;;12.64;82.49
68712;BME280;55690;51.566;19.198;2023-04-19T12:44:51;101839.40;;;12.48;83.44
68712;BME280;55690;51.566;19.198;2023-04-19T12:48:57;101839.44;;;12.75;82.13
68712;BME280;55690;51.566;19.198;2023-04-19T12:53:04;101836.27;;;12.54;82.84
68712;BME280;55690;51.566;19.198;2023-04-19T12:57:10;101848.73;;;12.16;84.24
68712;BME280;55690;51.566;19.198;2023-04-19T13:01:16;101843.97;;;12.48;84.04
68712;BME280;55690;51.566;19.198;2023-04-19T13:05:22;101855.55;;;12.37;84.61
68712;BME280;55690;51.566;19.198;2023-04-19T13:09:28;101852.91;;;12.21;83.99
68712;BME280;55690;51.566;19.198;2023-04-19T13:13:34;101855.55;;;12.37;83.86
68712;BME280;55690;51.566;19.198;2023-04-19T13:17:40;101852.53;;;12.56;83.25
68712;BME280;55690;51.566;19.198;2023-04-19T13:21:47;101857.06;;;12.70;83.10
68712;BME280;55690;51.566;19.198;2023-04-19T13:25:53;101860.89;;;12.24;83.26
68712;BME280;55690;51.566;19.198;2023-04-19T13:29:59;101863.44;;;12.56;83.60
68712;BME280;55690;51.566;19.198;2023-04-19T13:34:05;101869.81;;;12.69;83.28
68712;BME280;55690;51.566;19.198;2023-04-19T13:38:11;101869.43;;;12.61;83.65
68712;BME280;55690;51.566;19.198;2023-04-19T13:42:17;101857.72;;;12.87;83.02
68712;BME280;55690;51.566;19.198;2023-04-19T13:46:24;101867.59;;;13.03;83.06
68712;BME280;55690;51.566;19.198;2023-04-19T13:50:30;101863.85;;;12.91;82.66
68712;BME280;55690;51.566;19.198;2023-04-19T13:54:36;101870.58;;;13.12;82.36
68712;BME280;55690;51.566;19.198;2023-04-19T13:58:42;101864.09;;;13.00;81.90
68712;BME280;55690;51.566;19.198;2023-04-19T14:02:48;101857.34;;;13.20;81.61
68712;BME280;55690;51.566;19.198;2023-04-19T14:06:54;101862.97;;;12.90;82.28
68712;BME280;55690;51.566;19.198;2023-04-19T14:11:01;101852.27;;;12.87;83.12
68712;BME280;55690;51.566;19.198;2023-04-19T14:15:08;101851.66;;;12.96;82.92
68712;BME280;55690;51.566;19.198;2023-04-19T14:19:13;101857.91;;;12.84;83.45
68712;BME280;55690;51.566;19.198;2023-04-19T14:23:19;101856.29;;;12.68;83.70
68712;BME280;55690;51.566;19.198;2023-04-19T14:27:25;101857.66;;;12.60;84.20
68712;BME280;55690;51.566;19.198;2023-04-19T14:31:32;101862.48;;;12.84;83.42
68712;BME280;55690;51.566;19.198;2023-04-19T14:35:39;101862.66;;;12.95;83.06
68712;BME280;55690;51.566;19.198;2023-04-19T14:39:44;101867.86;;;12.71;83.71
68712;BME280;55690;51.566;19.198;2023-04-19T14:43:50;101871.34;;;12.87;83.52
68712;BME280;55690;51.566;19.198;2023-04-19T14:47:57;101856.68;;;12.61;84.37
68712;BME280;55690;51.566;19.198;2023-04-19T14:52:03;101858.17;;;12.53;84.48
68712;BME280;55690;51.566;19.198;2023-04-19T14:56:09;101870.78;;;12.68;84.70
68712;BME280;55690;51.566;19.198;2023-04-19T15:00:15;101869.55;;;12.45;85.73
68712;BME280;55690;51.566;19.198;2023-04-19T15:04:21;101871.02;;;12.51;85.99
68712;BME280;55690;51.566;19.198;2023-04-19T15:08:27;101871.99;;;12.50;85.54
68712;BME280;55690;51.566;19.198;2023-04-19T15:12:33;101879.35;;;12.62;85.25
68712;BME280;55690;51.566;19.198;2023-04-19T15:16:40;101860.51;;;12.45;85.77
68712;BME280;55690;51.566;19.198;2023-04-19T15:20:46;101872.92;;;12.63;85.35
68712;BME280;55690;51.566;19.198;2023-04-19T15:24:52;101866.31;;;12.67;84.58
68712;BME280;55690;51.566;19.198;2023-04-19T15:28:58;101877.99;;;12.69;85.30
68712;BME280;55690;51.566;19.198;2023-04-19T15:33:05;101877.29;;;12.80;84.95
68712;BME280;55690;51.566;19.198;2023-04-19T15:37:11;101879.72;;;12.84;85.41
68712;BME280;55690;51.566;19.198;2023-04-19T15:41:17;101878.78;;;12.57;85.49
68712;BME280;55690;51.566;19.198;2023-04-19T15:45:23;101889.27;;;12.63;85.74
68712;BME280;55690;51.566;19.198;2023-04-19T15:49:29;101885.95;;;12.86;85.36
68712;BME280;55690;51.566;19.198;2023-04-19T15:53:36;101893.45;;;12.83;85.22
68712;BME280;55690;51.566;19.198;2023-04-19T15:57:42;101896.36;;;12.94;85.07
68712;BME280;55690;51.566;19.198;2023-04-19T16:01:48;101902.52;;;13.10;84.57
68712;BME280;55690;51.566;19.198;2023-04-19T16:05:54;101893.33;;;13.40;83.64
68712;BME280;55690;51.566;19.198;2023-04-19T16:10:00;101896.37;;;13.35;84.18
68712;BME280;55690;51.566;19.198;2023-04-19T16:14:06;101886.48;;;13.20;83.87
68712;BME280;55690;51.566;19.198;2023-04-19T16:18:13;101902.78;;;12.93;84.64
68712;BME280;55690;51.566;19.198;2023-04-19T16:22:19;101905.41;;;12.94;84.85
68712;BME280;55690;51.566;19.198;2023-04-19T16:26:25;101912.20;;;13.16;84.76
68712;BME280;55690;51.566;19.198;2023-04-19T16:30:31;101911.38;;;13.14;84.89
68712;BME280;55690;51.566;19.198;2023-04-19T16:34:37;101919.00;;;13.23;84.39
68712;BME280;55690;51.566;19.198;2023-04-19T16:38:43;101916.32;;;12.94;84.29
68712;BME280;55690;51.566;19.198;2023-04-19T16:42:50;101907.79;;;13.27;83.91
68712;BME280;55690;51.566;19.198;2023-04-19T16:46:56;101903.98;;;13.30;84.16
68712;BME280;55690;51.566;19.198;2023-04-19T16:51:02;101910.31;;;13.30;84.07
68712;BME280;55690;51.566;19.198;2023-04-19T16:55:09;101912.67;;;13.22;84.31
68712;BME280;55690;51.566;19.198;2023-04-19T16:59:15;101918.20;;;13.35;83.71
68712;BME280;55690;51.566;19.198;2023-04-19T17:03:21;101921.52;;;13.12;84.17
68712;BME280;55690;51.566;19.198;2023-04-19T17:07:27;101927.29;;;13.21;84.68
68712;BME280;55690;51.566;19.198;2023-04-19T17:11:33;101934.55;;;13.35;84.12
68712;BME280;55690;51.566;19.198;2023-04-19T17:15:39;101928.94;;;13.24;84.19
68712;BME280;55690;51.566;19.198;2023-04-19T17:19:46;101938.19;;;13.07;84.24
68712;BME280;55690;51.566;19.198;2023-04-19T17:23:51;101944.95;;;12.87;84.83
68712;BME280;55690;51.566;19.198;2023-04-19T17:27:58;101948.52;;;13.02;84.56
68712;BME280;55690;51.566;19.198;2023-04-19T17:32:05;101954.94;;;13.01;84.90
68712;BME280;55690;51.566;19.198;2023-04-19T17:36:10;101950.99;;;12.92;85.01
68712;BME280;55690;51.566;19.198;2023-04-19T17:40:16;101957.80;;;12.99;85.28
68712;BME280;55690;51.566;19.198;2023-04-19T17:44:22;101955.27;;;12.96;85.40
68712;BME280;55690;51.566;19.198;2023-04-19T17:48:29;101955.06;;;12.99;85.06
68712;BME280;55690;51.566;19.198;2023-04-19T17:52:35;101956.04;;;12.98;85.01
68712;BME280;55690;51.566;19.198;2023-04-19T17:56:41;101958.97;;;12.67;86.06
68712;BME280;55690;51.566;19.198;2023-04-19T18:00:47;101965.98;;;12.85;85.41
68712;BME280;55690;51.566;19.198;2023-04-19T18:04:53;101962.66;;;12.66;86.09
68712;BME280;55690;51.566;19.198;2023-04-19T18:08:59;101968.13;;;12.52;86.90
68712;BME280;55690;51.566;19.198;2023-04-19T18:13:05;101973.73;;;12.35;87.28
68712;BME280;55690;51.566;19.198;2023-04-19T18:17:12;101971.55;;;12.55;86.53
68712;BME280;55690;51.566;19.198;2023-04-19T18:21:18;101941.14;;;12.61;86.01
68712;BME280;55690;51.566;19.198;2023-04-19T18:25:24;101973.76;;;12.63;86.13
68712;BME280;55690;51.566;19.198;2023-04-19T18:29:30;101974.73;;;12.62;86.75
68712;BME280;55690;51.566;19.198;2023-04-19T18:33:36;101981.16;;;12.61;86.41
68712;BME280;55690;51.566;19.198;2023-04-19T18:37:43;101985.42;;;12.37;87.53
68712;BME280;55690;51.566;19.198;2023-04-19T18:41:49;101979.59;;;12.43;87.28
68712;BME280;55690;51.566;19.198;2023-04-19T18:45:55;101973.77;;;12.49;87.37
68712;BME280;55690;51.566;19.198;2023-04-19T18:50:01;101974.73;;;12.62;87.19
68712;BME280;55690;51.566;19.198;2023-04-19T18:54:07;101970.66;;;12.55;87.38
68712;BME280;55690;51.566;19.198;2023-04-19T18:58:13;101967.54;;;12.47;87.32
68712;BME280;55690;51.566;19.198;2023-04-19T19:02:20;101974.62;;;12.35;88.52
68712;BME280;55690;51.566;19.198;2023-04-19T19:06:26;101958.84;;;12.26;88.66
68712;BME280;55690;51.566;19.198;2023-04-19T19:10:32;101966.55;;;12.33;88.64
68712;BME280;55690;51.566;19.198;2023-04-19T19:14:38;101967.54;;;12.47;88.33
68712;BME280;55690;51.566;19.198;2023-04-19T19:18:44;101968.48;;;12.31;88.79
68712;BME280;55690;51.566;19.198;2023-04-19T19:22:50;101970.55;;;12.42;88.54
68712;BME280;55690;51.566;19.198;2023-04-19T19:26:57;101963.24;;;12.57;88.44
68712;BME280;55690;51.566;19.198;2023-04-19T19:31:03;101967.54;;;12.47;88.64
68712;BME280;55690;51.566;19.198;2023-04-19T19:35:09;101973.95;;;12.60;87.92
68712;BME280;55690;51.566;19.198;2023-04-19T19:39:15;101979.42;;;12.88;86.73
68712;BME280;55690;51.566;19.198;2023-04-19T19:43:21;101974.16;;;12.85;86.98
68712;BME280;55690;51.566;19.198;2023-04-19T19:47:27;101970.25;;;12.61;88.17
68712;BME280;55690;51.566;19.198;2023-04-19T19:51:35;101973.09;;;12.74;87.61
68712;BME280;55690;51.566;19.198;2023-04-19T19:55:40;101976.49;;;12.49;88.64
68712;BME280;55690;51.566;19.198;2023-04-19T19:59:46;101980.09;;;12.49;88.88
68712;BME280;55690;51.566;19.198;2023-04-19T20:03:55;101979.38;;;12.31;89.77
68712;BME280;55690;51.566;19.198;2023-04-19T20:08:08;101978.03;;;12.39;89.78
68712;BME280;55690;51.566;19.198;2023-04-19T20:12:11;101968.49;;;12.60;88.75
68712;BME280;55690;51.566;19.198;2023-04-19T20:16:13;101973.09;;;12.74;88.47
68712;BME280;55690;51.566;19.198;2023-04-19T20:20:17;101971.41;;;12.57;89.08
68712;BME280;55690;51.566;19.198;2023-04-19T20:24:23;101974.74;;;12.48;89.35
68712;BME280;55690;51.566;19.198;2023-04-19T20:28:29;101980.76;;;12.39;89.94
68712;BME280;55690;51.566;19.198;2023-04-19T20:32:35;101982.32;;;12.43;89.93
68712;BME280;55690;51.566;19.198;2023-04-19T20:36:42;101981.57;;;12.55;89.49
68712;BME280;55690;51.566;19.198;2023-04-19T20:40:48;101988.17;;;12.51;89.93
68712;BME280;55690;51.566;19.198;2023-04-19T20:44:54;101978.44;;;12.47;89.65
68712;BME280;55690;51.566;19.198;2023-04-19T20:49:00;101982.88;;;12.33;91.11
68712;BME280;55690;51.566;19.198;2023-04-19T20:53:06;101981.82;;;12.36;90.82
68712;BME280;55690;51.566;19.198;2023-04-19T20:57:12;101977.16;;;12.38;90.72
68712;BME280;55690;51.566;19.198;2023-04-19T21:01:19;101983.98;;;12.45;90.05
68712;BME280;55690;51.566;19.198;2023-04-19T21:05:26;101985.79;;;12.30;91.44
68712;BME280;55690;51.566;19.198;2023-04-19T21:09:31;101998.99;;;12.22;91.48
68712;BME280;55690;51.566;19.198;2023-04-19T21:13:37;101996.18;;;12.24;91.34
68712;BME280;55690;51.566;19.198;2023-04-19T21:17:43;101993.09;;;12.30;91.66
68712;BME280;55690;51.566;19.198;2023-04-19T21:21:50;101996.82;;;12.43;91.04
68712;BME280;55690;51.566;19.198;2023-04-19T21:25:56;101995.38;;;12.52;90.66
68712;BME280;55690;51.566;19.198;2023-04-19T21:30:06;101995.08;;;12.71;89.77
68712;BME280;55690;51.566;19.198;2023-04-19T21:34:08;101983.77;;;12.62;89.79